KDLF/DLF METAR and TAF weather

Enter ICAO airport designator
Station Type Date Time Source
KDLF METAR 2021/09/24 01:56 UTC NOAA

KDLF 240156Z AUTO 12007KT 10SM CLR 24/05 A2998 RMK AO2 SLP143 T02350054 $


Station Type Date Time Source
KDLF Decoded METAR 2021/09/24 01:56 UTC NOAA

Laughlin, Laughlin Air Force Base Auxiliary Airfield, TX, United States (KDLF) 29-07-00N 100-28-00W 294M
Sep 23, 2021 - 09:56 PM EDT / 2021.09.24 0156 UTC
Wind: from the ESE (120 degrees) at 8 MPH (7 KT):0
Visibility: 10 mile(s):0
Sky conditions: clear
Temperature: 74.3 F (23.5 C)
Dew Point: 41.7 F (5.4 C)
Relative Humidity: 30%
Pressure (altimeter): 29.98 in. Hg (1015 hPa)
ob: KDLF 240156Z AUTO 12007KT 10SM CLR 24/05 A2998 RMK AO2 SLP143 T02350054
cycle: 2

Station Type Date Time Source
KDLF TAF 2021/09/23 22:42 UTC NOAA

TAF KDLF 232231Z 2322/2501 14010G15KT 9999 SKC QNH2996INS
BECMG 2402/2403 12006KT 9999 SKC QNH3002INS
BECMG 2415/2416 14015G25KT 9999 SKC QNH2994INS TX31/2322Z TN15/2412Z LAST NO
AMDS AFT 2322 NEXT 2411

Example: see airport list